Time;durP1;ratioP1;P1;durP2;ratioP2;P2;SDS_P1;SDS_P2;PMS_P1;PMS_P2;Temp;Humidity;BMP_temperature;BMP_pressure;BME280_temperature;BME280_humidity;BME280_pressure;Samples;Min_cycle;Max_cycle;Signal;HPM_P1;HPM_P2
2021/06/04 00:01:09;;;;;;;4.83;3.90;;;;;;;;;;4995024;28;20455;-65
2021/06/04 00:03:35;;;;;;;6.67;4.33;;;;;;;;;;4990783;28;20421;-65
2021/06/04 00:06:02;;;;;;;6.27;4.10;;;;;;;;;;4995076;28;20486;-65
2021/06/04 00:08:28;;;;;;;5.83;3.50;;;;;;;;;;4993326;28;20483;-66
2021/06/04 00:10:56;;;;;;;5.90;3.63;;;;;;;;;;4993603;28;20428;-66
2021/06/04 00:13:25;;;;;;;9.13;4.20;;;;;;;;;;4996475;28;20412;-65
2021/06/04 00:15:53;;;;;;;6.53;4.23;;;;;;;;;;4992716;28;20455;-65
2021/06/04 00:18:19;;;;;;;6.97;3.70;;;;;;;;;;4994039;28;20413;-65
2021/06/04 00:20:45;;;;;;;5.27;4.30;;;;;;;;;;4990061;28;20544;-65
2021/06/04 00:23:11;;;;;;;7.70;4.43;;;;;;;;;;4976597;28;20506;-65
2021/06/04 00:25:37;;;;;;;5.50;3.73;;;;;;;;;;4975952;28;21259;-65
2021/06/04 00:28:04;;;;;;;7.53;4.30;;;;;;;;;;4976738;28;20460;-65
2021/06/04 00:30:30;;;;;;;5.50;4.67;;;;;;;;;;4981621;28;20436;-66
2021/06/04 00:32:56;;;;;;;7.40;4.30;;;;;;;;;;4980817;28;20429;-65
2021/06/04 00:35:22;;;;;;;8.70;4.90;;;;;;;;;;4980337;28;20505;-64
2021/06/04 00:37:49;;;;;;;6.83;4.77;;;;;;;;;;4980104;28;20416;-66
2021/06/04 00:40:24;;;;;;;6.80;4.40;;;;;;;;;;4979756;28;20477;-66
2021/06/04 00:42:51;;;;;;;6.27;4.30;;;;;;;;;;4980294;28;20849;-65
2021/06/04 00:45:20;;;;;;;5.10;3.90;;;;;;;;;;4979963;28;20425;-67
2021/06/04 00:47:46;;;;;;;8.60;5.30;;;;;;;;;;4978977;28;20397;-65
2021/06/04 00:50:15;;;;;;;6.60;4.07;;;;;;;;;;4980087;28;20413;-65
2021/06/04 00:52:42;;;;;;;6.73;3.90;;;;;;;;;;4980086;28;20421;-66
2021/06/04 00:55:10;;;;;;;5.67;4.60;;;;;;;;;;4979266;28;20422;-65
2021/06/04 00:57:36;;;;;;;7.63;4.73;;;;;;;;;;4997874;28;20426;-65
2021/06/04 01:00:04;;;;;;;6.10;4.50;;;;;;;;;;4998870;28;20450;-65
2021/06/04 01:02:31;;;;;;;7.93;3.73;;;;;;;;;;4997854;28;20925;-65
2021/06/04 01:04:58;;;;;;;5.60;4.23;;;;;;;;;;4998903;28;20441;-65
2021/06/04 01:07:28;;;;;;;7.40;4.20;;;;;;;;;;4997687;28;20432;-65
2021/06/04 01:10:00;;;;;;;6.73;4.13;;;;;;;;;;4996419;28;20427;-65
2021/06/04 01:12:35;;;;;;;6.77;3.83;;;;;;;;;;4996709;28;20425;-66
2021/06/04 01:15:11;;;;;;;6.70;4.77;;;;;;;;;;4996059;28;20448;-65
2021/06/04 01:17:40;;;;;;;6.33;4.50;;;;;;;;;;4991349;28;20905;-65
2021/06/04 01:20:06;;;;;;;8.00;4.40;;;;;;;;;;4997270;28;20914;-65
2021/06/04 01:22:51;;;;;;;6.10;5.10;;;;;;;;;;4997338;28;20429;-65
2021/06/04 01:25:26;;;;;;;5.00;4.50;;;;;;;;;;4997952;28;20423;-65
2021/06/04 01:27:54;;;;;;;6.33;3.57;;;;;;;;;;4996493;28;20424;-65
2021/06/04 01:30:27;;;;;;;6.37;4.53;;;;;;;;;;4997933;28;20415;-65
2021/06/04 01:32:56;;;;;;;7.80;4.50;;;;;;;;;;4996957;28;20428;-65
2021/06/04 01:35:25;;;;;;;5.10;4.10;;;;;;;;;;4997631;28;20838;-65
2021/06/04 01:37:51;;;;;;;4.50;3.80;;;;;;;;;;4996348;28;20424;-65
2021/06/04 01:40:31;;;;;;;4.60;3.43;;;;;;;;;;4996309;28;20804;-65
2021/06/04 01:42:59;;;;;;;5.63;4.00;;;;;;;;;;4995880;28;20424;-65
2021/06/04 01:45:30;;;;;;;7.70;3.97;;;;;;;;;;4997058;28;20452;-65
2021/06/04 01:48:06;;;;;;;8.17;3.80;;;;;;;;;;4996127;28;20764;-65
2021/06/04 01:50:34;;;;;;;5.43;4.70;;;;;;;;;;4994826;28;20443;-65
2021/06/04 01:53:04;;;;;;;8.20;5.00;;;;;;;;;;4995901;28;20959;-65
2021/06/04 01:55:35;;;;;;;7.67;4.00;;;;;;;;;;4996069;28;20440;-64
2021/06/04 01:58:06;;;;;;;5.07;4.10;;;;;;;;;;4985117;28;20425;-65
2021/06/04 02:00:32;;;;;;;7.30;4.53;;;;;;;;;;4976648;28;20472;-65
2021/06/04 02:02:58;;;;;;;7.10;5.03;;;;;;;;;;4985284;28;20784;-65
2021/06/04 02:05:29;;;;;;;7.43;4.77;;;;;;;;;;4996364;28;20848;-65
2021/06/04 02:07:55;;;;;;;5.60;4.87;;;;;;;;;;4986779;28;20422;-65
2021/06/04 02:10:26;;;;;;;7.43;4.53;;;;;;;;;;4977806;28;20402;-65
2021/06/04 02:12:52;;;;;;;6.10;4.20;;;;;;;;;;4986445;28;20436;-65
2021/06/04 02:15:21;;;;;;;6.63;4.43;;;;;;;;;;4996952;28;20471;-65
2021/06/04 02:18:06;;;;;;;5.93;4.50;;;;;;;;;;4996234;28;20432;-65
2021/06/04 02:20:35;;;;;;;7.17;4.87;;;;;;;;;;4995836;28;20476;-65
2021/06/04 02:23:12;;;;;;;5.87;4.13;;;;;;;;;;4990599;28;20432;-66
2021/06/04 02:25:44;;;;;;;5.97;4.30;;;;;;;;;;4977577;28;20895;-65
2021/06/04 02:28:14;;;;;;;5.90;4.03;;;;;;;;;;4987753;28;20559;-65
2021/06/04 02:30:43;;;;;;;5.07;4.10;;;;;;;;;;4996978;28;20401;-65
2021/06/04 02:33:14;;;;;;;11.53;5.23;;;;;;;;;;4995785;28;20416;-65
2021/06/04 02:35:42;;;;;;;8.37;5.00;;;;;;;;;;4996411;28;20436;-65
2021/06/04 02:38:32;;;;;;;3.90;3.30;;;;;;;;;;4992652;28;20834;-66
2021/06/04 02:41:01;;;;;;;6.90;4.27;;;;;;;;;;4996486;28;20436;-65
2021/06/04 02:43:36;;;;;;;5.83;4.00;;;;;;;;;;4995045;28;20429;-65
2021/06/04 02:46:04;;;;;;;5.33;4.53;;;;;;;;;;4995560;28;20490;-65
2021/06/04 02:48:30;;;;;;;8.20;4.47;;;;;;;;;;4994345;28;20428;-65
2021/06/04 02:51:01;;;;;;;12.00;3.90;;;;;;;;;;4995718;28;20463;-65
2021/06/04 02:53:50;;;;;;;5.70;4.23;;;;;;;;;;4981951;28;20790;-65
2021/06/04 02:56:19;;;;;;;8.23;4.67;;;;;;;;;;4977163;28;20465;-66
2021/06/04 02:58:48;;;;;;;9.60;4.10;;;;;;;;;;4994741;28;20428;-65
2021/06/04 03:01:14;;;;;;;6.40;4.47;;;;;;;;;;4994761;28;20452;-65
2021/06/04 03:03:42;;;;;;;4.63;3.90;;;;;;;;;;4981925;28;20436;-65
2021/06/04 03:06:09;;;;;;;5.33;4.33;;;;;;;;;;4975949;28;20957;-65
2021/06/04 03:08:36;;;;;;;5.70;4.53;;;;;;;;;;4976363;28;20436;-65
2021/06/04 03:11:04;;;;;;;8.70;4.43;;;;;;;;;;4976430;28;20414;-65
2021/06/04 03:13:31;;;;;;;8.33;3.93;;;;;;;;;;4976571;28;20512;-65
2021/06/04 03:16:00;;;;;;;5.67;4.10;;;;;;;;;;4976453;28;20448;-65
2021/06/04 03:18:31;;;;;;;8.73;4.27;;;;;;;;;;4986194;28;20436;-65
2021/06/04 03:20:58;;;;;;;6.90;4.40;;;;;;;;;;4995678;28;20455;-65
2021/06/04 03:23:35;;;;;;;8.27;4.73;;;;;;;;;;4984658;28;20847;-65
2021/06/04 03:26:01;;;;;;;5.87;4.30;;;;;;;;;;4975976;28;20794;-65
2021/06/04 03:28:27;;;;;;;6.43;4.13;;;;;;;;;;4975823;28;20425;-65
2021/06/04 03:30:54;;;;;;;6.90;4.20;;;;;;;;;;4981014;28;20503;-65
2021/06/04 03:33:22;;;;;;;6.10;3.90;;;;;;;;;;4994326;28;20439;-65
2021/06/04 03:35:49;;;;;;;9.30;4.20;;;;;;;;;;4995342;28;20436;-65
2021/06/04 03:38:17;;;;;;;4.60;3.60;;;;;;;;;;4993063;28;20463;-65
2021/06/04 03:40:43;;;;;;;7.83;4.07;;;;;;;;;;4995134;28;20472;-65
2021/06/04 03:43:11;;;;;;;8.90;4.70;;;;;;;;;;4994210;28;20900;-65
2021/06/04 03:45:39;;;;;;;7.77;4.30;;;;;;;;;;4995578;28;20424;-65
2021/06/04 03:48:06;;;;;;;4.40;4.00;;;;;;;;;;4988565;28;20476;-65
2021/06/04 03:50:33;;;;;;;5.90;3.90;;;;;;;;;;4976403;28;20428;-65
2021/06/04 03:52:59;;;;;;;5.50;4.00;;;;;;;;;;4981543;28;20583;-65
2021/06/04 03:55:26;;;;;;;7.17;4.13;;;;;;;;;;4995319;28;20428;-65
2021/06/04 03:57:52;;;;;;;4.97;4.33;;;;;;;;;;4989818;28;20422;-65
2021/06/04 04:00:24;;;;;;;4.67;3.97;;;;;;;;;;4975648;28;20489;-64
2021/06/04 04:02:50;;;;;;;5.43;4.20;;;;;;;;;;4975625;28;20421;-64
2021/06/04 04:05:16;;;;;;;7.40;4.60;;;;;;;;;;4975615;28;20496;-65
2021/06/04 04:07:42;;;;;;;5.30;4.13;;;;;;;;;;4978800;28;20468;-64
2021/06/04 04:10:10;;;;;;;7.73;4.33;;;;;;;;;;4995552;28;20437;-65
2021/06/04 04:12:36;;;;;;;5.07;4.40;;;;;;;;;;4994543;28;20475;-64
2021/06/04 04:15:03;;;;;;;8.93;4.00;;;;;;;;;;4994769;28;20425;-65
2021/06/04 04:17:29;;;;;;;5.47;3.77;;;;;;;;;;4994468;28;20409;-64
2021/06/04 04:19:56;;;;;;;6.40;4.07;;;;;;;;;;4995269;28;20411;-64
2021/06/04 04:22:22;;;;;;;5.20;3.93;;;;;;;;;;4995762;28;20462;-64
2021/06/04 04:24:48;;;;;;;5.27;3.77;;;;;;;;;;4994538;28;20448;-64
2021/06/04 04:27:14;;;;;;;5.70;4.60;;;;;;;;;;4994114;28;20424;-64
2021/06/04 04:29:41;;;;;;;5.30;4.50;;;;;;;;;;4995338;28;20487;-64
2021/06/04 04:32:12;;;;;;;7.10;4.43;;;;;;;;;;4994277;28;20789;-64
2021/06/04 04:34:39;;;;;;;7.30;4.80;;;;;;;;;;4994799;28;20993;-64
2021/06/04 04:37:05;;;;;;;8.73;5.57;;;;;;;;;;4991681;28;20843;-64
2021/06/04 04:39:35;;;;;;;8.00;4.77;;;;;;;;;;4994906;28;20956;-64
2021/06/04 04:42:02;;;;;;;8.93;4.67;;;;;;;;;;4994217;28;20452;-65
2021/06/04 04:44:30;;;;;;;5.37;4.10;;;;;;;;;;4995008;28;20498;-65
2021/06/04 04:46:57;;;;;;;6.03;5.10;;;;;;;;;;4993892;28;20425;-64
2021/06/04 04:49:23;;;;;;;6.10;4.10;;;;;;;;;;4994696;28;20770;-64
2021/06/04 04:51:49;;;;;;;7.77;4.97;;;;;;;;;;4994442;28;20444;-65
2021/06/04 04:54:15;;;;;;;8.13;4.70;;;;;;;;;;4995537;28;20770;-65
2021/06/04 04:56:41;;;;;;;8.77;4.67;;;;;;;;;;4994671;28;20524;-65
2021/06/04 04:59:08;;;;;;;8.80;5.50;;;;;;;;;;4995469;28;20421;-65
2021/06/04 05:01:34;;;;;;;5.50;4.43;;;;;;;;;;4994165;28;20459;-65
2021/06/04 05:04:01;;;;;;;7.20;4.87;;;;;;;;;;4995328;28;20412;-65
2021/06/04 05:06:27;;;;;;;7.83;5.53;;;;;;;;;;4994314;28;20444;-65
2021/06/04 05:08:53;;;;;;;10.80;5.37;;;;;;;;;;4994958;28;20463;-65
2021/06/04 05:11:19;;;;;;;8.97;5.93;;;;;;;;;;4992492;28;20429;-66
2021/06/04 05:13:45;;;;;;;9.97;5.80;;;;;;;;;;4995269;28;20776;-64
2021/06/04 05:16:11;;;;;;;10.50;7.23;;;;;;;;;;4994383;28;20491;-64
2021/06/04 05:18:38;;;;;;;13.70;6.90;;;;;;;;;;4997486;28;20432;-64
2021/06/04 05:21:05;;;;;;;12.27;6.80;;;;;;;;;;4997763;28;20452;-64
2021/06/04 05:23:31;;;;;;;9.07;5.40;;;;;;;;;;4996853;28;20527;-64
2021/06/04 05:25:57;;;;;;;9.90;5.40;;;;;;;;;;4997432;28;20579;-64
2021/06/04 05:28:24;;;;;;;8.80;5.90;;;;;;;;;;4995436;28;20424;-65
2021/06/04 05:30:51;;;;;;;8.13;4.87;;;;;;;;;;4996847;28;20539;-65
2021/06/04 05:33:19;;;;;;;6.33;4.93;;;;;;;;;;4994641;28;20540;-66
2021/06/04 05:35:46;;;;;;;8.33;4.57;;;;;;;;;;4997603;28;20443;-65
2021/06/04 05:38:12;;;;;;;12.60;4.83;;;;;;;;;;4995961;28;20486;-65
2021/06/04 05:40:40;;;;;;;8.60;4.73;;;;;;;;;;4996929;28;20463;-66
2021/06/04 05:43:07;;;;;;;6.30;4.60;;;;;;;;;;4988078;28;20495;-67
2021/06/04 05:45:37;;;;;;;7.53;5.20;;;;;;;;;;4993725;28;20459;-65
2021/06/04 05:48:03;;;;;;;7.10;5.00;;;;;;;;;;4993856;28;20416;-69
2021/06/04 05:50:35;;;;;;;6.53;4.90;;;;;;;;;;4991308;28;20448;-68
2021/06/04 05:53:01;;;;;;;7.20;5.33;;;;;;;;;;4992661;28;20934;-68
2021/06/04 05:55:28;;;;;;;7.70;5.10;;;;;;;;;;4995878;28;20464;-69
2021/06/04 05:57:54;;;;;;;5.50;4.40;;;;;;;;;;4994825;28;20424;-66
2021/06/04 06:00:35;;;;;;;7.00;4.70;;;;;;;;;;4996244;28;20976;-66
2021/06/04 06:03:02;;;;;;;5.23;4.43;;;;;;;;;;4994890;28;20416;-67
2021/06/04 06:05:28;;;;;;;8.23;5.03;;;;;;;;;;4995546;28;20945;-67
2021/06/04 06:07:54;;;;;;;6.03;4.37;;;;;;;;;;4995385;28;20425;-67
2021/06/04 06:10:21;;;;;;;7.20;4.63;;;;;;;;;;4996947;28;20421;-67
2021/06/04 06:12:49;;;;;;;6.67;4.43;;;;;;;;;;4993508;28;20519;-67
2021/06/04 06:15:15;;;;;;;5.73;4.07;;;;;;;;;;4995491;28;20436;-67
2021/06/04 06:17:41;;;;;;;5.33;3.90;;;;;;;;;;4994177;28;20432;-68
2021/06/04 06:20:08;;;;;;;5.30;4.03;;;;;;;;;;4995938;28;20972;-70
2021/06/04 06:22:34;;;;;;;7.63;4.70;;;;;;;;;;4995163;28;20452;-69
2021/06/04 06:25:00;;;;;;;7.00;3.90;;;;;;;;;;4995453;28;20417;-67
2021/06/04 06:27:26;;;;;;;5.67;4.23;;;;;;;;;;4994046;28;20428;-68
2021/06/04 06:29:52;;;;;;;6.77;4.10;;;;;;;;;;4991224;28;20869;-67
2021/06/04 06:32:21;;;;;;;8.80;4.43;;;;;;;;;;4993557;28;20571;-69
2021/06/04 06:34:47;;;;;;;7.20;4.60;;;;;;;;;;4994688;28;20424;-69
2021/06/04 06:37:14;;;;;;;4.73;3.87;;;;;;;;;;4994207;28;20503;-69
2021/06/04 06:39:40;;;;;;;5.03;3.67;;;;;;;;;;4992601;28;20436;-66
2021/06/04 06:42:07;;;;;;;9.37;4.47;;;;;;;;;;4994139;28;20452;-67
2021/06/04 06:44:33;;;;;;;5.30;4.03;;;;;;;;;;4991430;28;20429;-64
2021/06/04 06:46:59;;;;;;;5.00;3.67;;;;;;;;;;4991943;28;20572;-62
2021/06/04 06:49:26;;;;;;;5.37;4.20;;;;;;;;;;4994818;28;20408;-61
2021/06/04 06:51:52;;;;;;;5.97;4.07;;;;;;;;;;4992065;28;20425;-64
2021/06/04 06:54:20;;;;;;;6.57;4.07;;;;;;;;;;4994380;28;20425;-64
2021/06/04 06:56:47;;;;;;;4.17;3.60;;;;;;;;;;4991206;28;20440;-66
2021/06/04 06:59:13;;;;;;;5.80;4.60;;;;;;;;;;4991960;28;20905;-65
2021/06/04 07:01:40;;;;;;;6.27;4.30;;;;;;;;;;4987833;28;20484;-64
2021/06/04 07:04:06;;;;;;;5.00;4.03;;;;;;;;;;4991149;28;20801;-65
2021/06/04 07:06:35;;;;;;;7.03;4.37;;;;;;;;;;4986912;28;20534;-65
2021/06/04 07:09:01;;;;;;;6.00;4.10;;;;;;;;;;4990857;28;20413;-65
2021/06/04 07:11:31;;;;;;;7.47;5.03;;;;;;;;;;4994313;28;20809;-65
2021/06/04 07:13:57;;;;;;;5.97;4.33;;;;;;;;;;4993111;28;20507;-64
2021/06/04 07:16:24;;;;;;;4.90;4.23;;;;;;;;;;4992868;28;20448;-64
2021/06/04 07:18:51;;;;;;;7.50;4.10;;;;;;;;;;4993436;28;20459;-65
2021/06/04 07:21:19;;;;;;;4.53;3.80;;;;;;;;;;4980709;28;20503;-65
2021/06/04 07:23:45;;;;;;;4.80;3.77;;;;;;;;;;4981013;28;20480;-65
2021/06/04 07:26:11;;;;;;;5.57;4.40;;;;;;;;;;4977560;28;20449;-65
2021/06/04 07:28:38;;;;;;;3.97;3.57;;;;;;;;;;4978500;28;20914;-65
2021/06/04 07:31:06;;;;;;;4.27;3.67;;;;;;;;;;4987650;28;20432;-64
2021/06/04 07:33:41;;;;;;;5.13;3.57;;;;;;;;;;4984469;28;20440;-65
2021/06/04 07:36:09;;;;;;;5.60;4.03;;;;;;;;;;4988903;28;20451;-64
2021/06/04 07:38:36;;;;;;;12.40;4.50;;;;;;;;;;4984244;28;20429;-65
2021/06/04 07:41:02;;;;;;;4.93;4.20;;;;;;;;;;4993345;28;20510;-64
2021/06/04 07:43:30;;;;;;;5.10;3.97;;;;;;;;;;4991891;28;20439;-66
2021/06/04 07:45:57;;;;;;;4.87;3.90;;;;;;;;;;4993197;28;20804;-66
2021/06/04 07:48:23;;;;;;;5.43;3.80;;;;;;;;;;4985973;28;20436;-65
2021/06/04 07:50:50;;;;;;;4.30;3.50;;;;;;;;;;4990679;28;20784;-65
2021/06/04 07:53:17;;;;;;;6.13;4.00;;;;;;;;;;4990311;28;20424;-64
2021/06/04 07:55:45;;;;;;;4.50;3.93;;;;;;;;;;4992969;28;20483;-67
2021/06/04 07:58:11;;;;;;;5.30;4.37;;;;;;;;;;4987583;28;20432;-66
2021/06/04 08:00:38;;;;;;;6.10;4.33;;;;;;;;;;4990194;28;20807;-65
2021/06/04 08:03:05;;;;;;;6.87;3.90;;;;;;;;;;4989246;28;20443;-65
2021/06/04 08:05:32;;;;;;;4.93;4.07;;;;;;;;;;4988797;28;20785;-65
2021/06/04 08:07:59;;;;;;;4.30;3.80;;;;;;;;;;4990134;28;20901;-65
2021/06/04 08:10:25;;;;;;;5.03;4.00;;;;;;;;;;4990087;28;20428;-65
2021/06/04 08:12:51;;;;;;;7.03;3.80;;;;;;;;;;4991797;28;20502;-66
2021/06/04 08:15:23;;;;;;;5.23;3.60;;;;;;;;;;4991936;28;20480;-65
2021/06/04 08:17:49;;;;;;;4.70;3.87;;;;;;;;;;4991931;28;20424;-65
2021/06/04 08:20:27;;;;;;;5.53;4.00;;;;;;;;;;4982454;28;20459;-65
2021/06/04 08:22:55;;;;;;;4.67;4.03;;;;;;;;;;4991462;28;20503;-65
2021/06/04 08:25:22;;;;;;;5.50;4.63;;;;;;;;;;4993615;28;20805;-65
2021/06/04 08:27:48;;;;;;;5.40;4.20;;;;;;;;;;4991973;28;20474;-65
2021/06/04 08:30:15;;;;;;;6.23;4.30;;;;;;;;;;4987921;28;20416;-65
2021/06/04 08:32:41;;;;;;;5.17;3.97;;;;;;;;;;4992858;28;20459;-64
2021/06/04 08:35:10;;;;;;;5.17;4.17;;;;;;;;;;4986434;28;20444;-64
2021/06/04 08:37:37;;;;;;;5.13;4.00;;;;;;;;;;4991320;28;20439;-63
2021/06/04 08:40:08;;;;;;;6.80;5.33;;;;;;;;;;4991204;28;20456;-63
2021/06/04 08:42:39;;;;;;;23.17;9.63;;;;;;;;;;4990847;28;20451;-63
2021/06/04 08:45:24;;;;;;;8.83;4.37;;;;;;;;;;4992344;28;20987;-65
2021/06/04 08:47:54;;;;;;;8.43;4.97;;;;;;;;;;4989385;28;20424;-65
2021/06/04 08:50:35;;;;;;;9.03;4.57;;;;;;;;;;4975860;28;20464;-63
2021/06/04 08:53:08;;;;;;;5.63;4.27;;;;;;;;;;4994091;28;20400;-65
2021/06/04 08:55:39;;;;;;;5.90;4.77;;;;;;;;;;4996958;28;20467;-65
2021/06/04 08:58:17;;;;;;;4.80;4.30;;;;;;;;;;4996496;28;20419;-65
2021/06/04 09:00:46;;;;;;;5.23;4.40;;;;;;;;;;4997078;28;20482;-63
2021/06/04 09:03:12;;;;;;;10.73;4.50;;;;;;;;;;4996214;28;20467;-64
2021/06/04 09:05:45;;;;;;;10.87;6.37;;;;;;;;;;4996319;28;20784;-65
2021/06/04 09:08:15;;;;;;;5.63;4.17;;;;;;;;;;4995934;28;20781;-65
2021/06/04 09:10:45;;;;;;;8.73;4.70;;;;;;;;;;4996961;28;20416;-65
2021/06/04 09:13:15;;;;;;;6.53;5.67;;;;;;;;;;4993980;28;20784;-65
2021/06/04 09:15:43;;;;;;;8.87;5.30;;;;;;;;;;4982757;28;20443;-65
2021/06/04 09:18:12;;;;;;;6.23;5.13;;;;;;;;;;4994420;28;20771;-65
2021/06/04 09:20:56;;;;;;;7.70;5.17;;;;;;;;;;4978305;28;20448;-65
2021/06/04 09:23:30;;;;;;;9.77;5.13;;;;;;;;;;4981068;28;20435;-65
2021/06/04 09:25:57;;;;;;;4.63;4.23;;;;;;;;;;4997465;28;20429;-65
2021/06/04 09:28:23;;;;;;;5.73;4.80;;;;;;;;;;4996381;28;20512;-65
2021/06/04 09:30:50;;;;;;;11.60;4.50;;;;;;;;;;4977807;28;20405;-65
2021/06/04 09:33:22;;;;;;;6.03;4.40;;;;;;;;;;4991847;28;20550;-64
2021/06/04 09:35:58;;;;;;;5.73;4.60;;;;;;;;;;4996048;28;20444;-65
2021/06/04 09:38:36;;;;;;;7.50;3.87;;;;;;;;;;4991494;28;20432;-65
2021/06/04 09:41:18;;;;;;;5.40;4.00;;;;;;;;;;4991093;28;20605;-65
2021/06/04 09:43:45;;;;;;;6.13;4.37;;;;;;;;;;4994277;28;20436;-65
2021/06/04 09:46:13;;;;;;;5.13;4.37;;;;;;;;;;4995144;28;20444;-65
2021/06/04 09:48:48;;;;;;;5.20;4.70;;;;;;;;;;4995262;28;20991;-65
2021/06/04 09:51:22;;;;;;;5.53;4.00;;;;;;;;;;4993808;28;20424;-65
2021/06/04 09:53:49;;;;;;;8.27;4.67;;;;;;;;;;4992016;28;20511;-65
2021/06/04 09:56:24;;;;;;;7.70;4.70;;;;;;;;;;4993700;28;20874;-65
2021/06/04 09:58:50;;;;;;;7.77;4.30;;;;;;;;;;4994888;28;20424;-65
2021/06/04 10:01:16;;;;;;;5.17;4.67;;;;;;;;;;4993086;28;20602;-65
2021/06/04 10:03:43;;;;;;;8.73;4.40;;;;;;;;;;4993925;28;20436;-65
2021/06/04 10:06:10;;;;;;;12.33;4.47;;;;;;;;;;4993504;28;20843;-66
2021/06/04 10:08:59;;;;;;;4.97;4.23;;;;;;;;;;4991897;28;20515;-65
2021/06/04 10:11:28;;;;;;;12.57;5.70;;;;;;;;;;4985492;28;20873;-65
2021/06/04 10:19:36;;;;;;;12.03;7.10;;;;;;;;;;4992206;28;20420;-65
2021/06/04 10:22:05;;;;;;;6.00;3.70;;;;;;;;;;4993912;28;20471;-65
2021/06/04 10:24:36;;;;;;;4.00;3.40;;;;;;;;;;4993971;28;20428;-65
2021/06/04 10:27:05;;;;;;;3.90;3.50;;;;;;;;;;4987914;28;20433;-66
2021/06/04 10:29:32;;;;;;;4.77;3.93;;;;;;;;;;4990489;28;20431;-66
2021/06/04 10:32:07;;;;;;;5.93;4.20;;;;;;;;;;4990214;28;20417;-66
2021/06/04 10:34:59;;;;;;;4.40;4.00;;;;;;;;;;4994641;28;20467;-66
2021/06/04 10:37:34;;;;;;;4.10;3.70;;;;;;;;;;4979319;28;20444;-66
2021/06/04 10:40:13;;;;;;;4.00;3.30;;;;;;;;;;4992091;28;20428;-64
2021/06/04 10:43:06;;;;;;;5.60;3.70;;;;;;;;;;4989092;28;20428;-65
2021/06/04 10:45:40;;;;;;;7.40;3.50;;;;;;;;;;4985674;28;20459;-66
2021/06/04 10:48:15;;;;;;;7.53;4.10;;;;;;;;;;4994257;28;20412;-65
2021/06/04 10:50:41;;;;;;;8.00;4.10;;;;;;;;;;4990956;28;20420;-67
2021/06/04 10:53:20;;;;;;;3.90;3.50;;;;;;;;;;4994347;28;20408;-66
2021/06/04 10:55:52;;;;;;;5.17;3.57;;;;;;;;;;4990712;28;20454;-65
2021/06/04 10:58:29;;;;;;;4.60;3.50;;;;;;;;;;4984036;28;20448;-65
2021/06/04 11:01:00;;;;;;;4.90;3.40;;;;;;;;;;4991662;28;20448;-66
2021/06/04 11:03:32;;;;;;;5.37;4.10;;;;;;;;;;4993091;28;20428;-66
2021/06/04 11:06:13;;;;;;;8.67;3.73;;;;;;;;;;4984620;28;20467;-66
2021/06/04 11:08:39;;;;;;;5.53;3.40;;;;;;;;;;4993924;28;20431;-65
2021/06/04 11:11:05;;;;;;;4.17;2.87;;;;;;;;;;4992929;28;20421;-67
2021/06/04 11:13:50;;;;;;;5.67;3.50;;;;;;;;;;4994563;28;20420;-66
2021/06/04 11:16:28;;;;;;;7.47;3.10;;;;;;;;;;4990098;28;20535;-66
2021/06/04 11:18:59;;;;;;;5.10;3.80;;;;;;;;;;4992322;28;20486;-65
2021/06/04 11:21:30;;;;;;;3.80;3.40;;;;;;;;;;4979605;28;20448;-66
2021/06/04 11:24:13;;;;;;;3.70;3.40;;;;;;;;;;4990041;28;20413;-66
2021/06/04 11:26:43;;;;;;;3.93;3.43;;;;;;;;;;4990994;28;20479;-66
2021/06/04 11:29:12;;;;;;;3.20;2.73;;;;;;;;;;4988337;28;20459;-66
2021/06/04 11:31:52;;;;;;;5.73;3.40;;;;;;;;;;4992591;28;20432;-65
2021/06/04 11:34:38;;;;;;;6.93;4.40;;;;;;;;;;4984299;28;20802;-65
2021/06/04 11:37:04;;;;;;;3.70;3.10;;;;;;;;;;4992656;28;20439;-65
2021/06/04 11:39:35;;;;;;;5.07;3.20;;;;;;;;;;4992517;28;20420;-66
2021/06/04 11:42:05;;;;;;;4.77;3.10;;;;;;;;;;4988818;28;20455;-65
2021/06/04 11:44:55;;;;;;;3.90;2.90;;;;;;;;;;4991948;28;20495;-65
2021/06/04 11:47:21;;;;;;;7.20;2.80;;;;;;;;;;4986223;28;20786;-65
2021/06/04 11:50:09;;;;;;;4.43;2.90;;;;;;;;;;4994232;28;20443;-65
2021/06/04 11:52:43;;;;;;;5.60;2.90;;;;;;;;;;4989484;28;20431;-63
2021/06/04 11:55:20;;;;;;;3.80;3.30;;;;;;;;;;4991404;28;20471;-65
2021/06/04 11:57:55;;;;;;;4.00;2.93;;;;;;;;;;4987426;28;20455;-65
2021/06/04 12:00:30;;;;;;;4.10;3.20;;;;;;;;;;4992133;28;20992;-65
2021/06/04 12:03:03;;;;;;;4.03;3.40;;;;;;;;;;4991577;28;20435;-65
2021/06/04 12:05:35;;;;;;;4.20;3.20;;;;;;;;;;4992023;28;20471;-66
2021/06/04 12:08:19;;;;;;;4.33;3.30;;;;;;;;;;4992269;28;20929;-65
2021/06/04 12:11:05;;;;;;;7.83;3.50;;;;;;;;;;4992149;28;20416;-67
2021/06/04 12:13:31;;;;;;;4.30;3.60;;;;;;;;;;4992545;28;20424;-66
2021/06/04 12:16:17;;;;;;;4.30;3.90;;;;;;;;;;4988608;28;21203;-67
2021/06/04 12:19:02;;;;;;;5.73;4.33;;;;;;;;;;4983491;28;20427;-66
2021/06/04 12:24:18;;;;;;;5.83;4.37;;;;;;;;;;4988461;28;20468;-65
2021/06/04 12:26:46;;;;;;;6.10;4.03;;;;;;;;;;4994232;28;20439;-65
2021/06/04 12:29:21;;;;;;;6.87;4.60;;;;;;;;;;4995240;28;20955;-66
2021/06/04 12:31:53;;;;;;;5.17;3.67;;;;;;;;;;4995813;28;20438;-66
2021/06/04 12:34:38;;;;;;;6.30;4.87;;;;;;;;;;4995902;28;20516;-66
2021/06/04 12:37:04;;;;;;;7.37;3.53;;;;;;;;;;4995069;28;20427;-66
2021/06/04 12:39:36;;;;;;;5.03;3.80;;;;;;;;;;4995753;28;20535;-66
2021/06/04 12:42:35;;;;;;;4.43;4.03;;;;;;;;;;4996122;28;20463;-65
2021/06/04 12:45:04;;;;;;;5.73;3.93;;;;;;;;;;4994978;28;20456;-65
2021/06/04 12:47:33;;;;;;;6.00;5.33;;;;;;;;;;4994575;28;20935;-65
2021/06/04 12:50:17;;;;;;;6.40;3.70;;;;;;;;;;4995267;28;20416;-65
2021/06/04 12:52:43;;;;;;;5.20;3.60;;;;;;;;;;4995036;28;20475;-65
2021/06/04 12:55:14;;;;;;;7.70;4.10;;;;;;;;;;4995664;28;20448;-65
2021/06/04 12:57:40;;;;;;;5.57;4.10;;;;;;;;;;4994269;28;20417;-65
2021/06/04 13:00:26;;;;;;;6.47;4.80;;;;;;;;;;4995603;28;20444;-66
2021/06/04 13:02:55;;;;;;;5.10;4.10;;;;;;;;;;4991589;28;20519;-65
2021/06/04 13:05:23;;;;;;;3.87;3.47;;;;;;;;;;4995501;28;20472;-65
2021/06/04 13:07:50;;;;;;;5.00;3.60;;;;;;;;;;4994766;28;20435;-66
2021/06/04 13:10:25;;;;;;;5.57;4.20;;;;;;;;;;4996334;28;20508;-65
2021/06/04 13:12:55;;;;;;;5.00;4.40;;;;;;;;;;4994471;28;20424;-66
2021/06/04 13:15:23;;;;;;;5.90;4.13;;;;;;;;;;4995057;28;20481;-65
2021/06/04 13:17:54;;;;;;;4.40;3.87;;;;;;;;;;4994420;28;20420;-66
2021/06/04 13:20:28;;;;;;;5.37;4.43;;;;;;;;;;4995015;28;20447;-65
2021/06/04 13:23:13;;;;;;;6.77;4.23;;;;;;;;;;4994375;28;20427;-65
2021/06/04 13:25:41;;;;;;;6.00;3.80;;;;;;;;;;4996291;28;20423;-65
2021/06/04 13:28:07;;;;;;;5.73;4.40;;;;;;;;;;4994869;28;20428;-65
2021/06/04 13:30:33;;;;;;;4.67;3.93;;;;;;;;;;4995803;28;20424;-65
2021/06/04 13:33:00;;;;;;;4.50;4.10;;;;;;;;;;4993235;28;20429;-66
2021/06/04 13:35:41;;;;;;;8.00;4.00;;;;;;;;;;4994902;28;20482;-65
2021/06/04 13:38:12;;;;;;;8.50;4.87;;;;;;;;;;4990652;28;20518;-65
2021/06/04 13:40:41;;;;;;;5.80;3.80;;;;;;;;;;4993779;28;20498;-65
2021/06/04 13:43:18;;;;;;;3.67;3.37;;;;;;;;;;4990497;28;20439;-65
2021/06/04 13:45:46;;;;;;;9.23;4.00;;;;;;;;;;4994188;28;20436;-65
2021/06/04 13:48:18;;;;;;;5.80;4.27;;;;;;;;;;4993019;28;20941;-66
2021/06/04 13:50:47;;;;;;;4.87;3.83;;;;;;;;;;4985885;28;20425;-65
2021/06/04 13:53:13;;;;;;;5.73;3.53;;;;;;;;;;4986994;28;20429;-65
2021/06/04 13:55:41;;;;;;;5.50;4.30;;;;;;;;;;4994410;28;20546;-64
2021/06/04 13:58:16;;;;;;;5.37;3.77;;;;;;;;;;4994406;28;20425;-64
2021/06/04 14:00:43;;;;;;;3.90;3.50;;;;;;;;;;4994004;28;20485;-66
2021/06/04 14:03:09;;;;;;;4.80;3.70;;;;;;;;;;4993995;28;20921;-65
2021/06/04 14:05:36;;;;;;;6.33;4.50;;;;;;;;;;4990048;28;20547;-65
2021/06/04 14:08:04;;;;;;;7.83;3.67;;;;;;;;;;4994596;28;20791;-65
2021/06/04 14:10:33;;;;;;;7.37;3.07;;;;;;;;;;4994437;28;21115;-65
2021/06/04 14:13:07;;;;;;;4.43;2.40;;;;;;;;;;4994186;28;20921;-65
2021/06/04 14:15:41;;;;;;;4.23;1.97;;;;;;;;;;4995377;28;20828;-66
2021/06/04 14:18:26;;;;;;;5.37;2.23;;;;;;;;;;4992869;28;20432;-65
2021/06/04 14:20:52;;;;;;;5.80;2.43;;;;;;;;;;4992697;28;20462;-65
2021/06/04 14:23:26;;;;;;;7.83;2.37;;;;;;;;;;4991938;28;20432;-65
2021/06/04 14:26:12;;;;;;;4.07;2.20;;;;;;;;;;4991723;28;20451;-65
2021/06/04 14:28:38;;;;;;;6.03;2.10;;;;;;;;;;4993820;28;20429;-65
2021/06/04 14:31:05;;;;;;;7.87;3.10;;;;;;;;;;4994513;28;20420;-65
2021/06/04 14:33:39;;;;;;;6.30;2.20;;;;;;;;;;4992306;28;20431;-65
2021/06/04 14:36:05;;;;;;;8.03;2.60;;;;;;;;;;4993786;28;20455;-64
2021/06/04 14:38:31;;;;;;;3.10;2.00;;;;;;;;;;4988981;28;20447;-65
2021/06/04 14:40:59;;;;;;;5.73;2.57;;;;;;;;;;4982838;28;20460;-65
2021/06/04 14:43:25;;;;;;;5.93;2.20;;;;;;;;;;4985423;28;20424;-65
2021/06/04 14:45:52;;;;;;;5.80;2.50;;;;;;;;;;4993110;28;20433;-65
2021/06/04 14:48:21;;;;;;;8.13;2.43;;;;;;;;;;4986718;28;20448;-65
2021/06/04 14:50:48;;;;;;;4.60;2.30;;;;;;;;;;4991844;28;20467;-65
2021/06/04 14:53:14;;;;;;;4.03;2.37;;;;;;;;;;4991424;28;20435;-65
2021/06/04 14:55:40;;;;;;;8.57;3.00;;;;;;;;;;4993461;28;20913;-64
2021/06/04 14:58:07;;;;;;;4.80;2.60;;;;;;;;;;4991763;28;20432;-64
2021/06/04 15:00:33;;;;;;;9.60;2.30;;;;;;;;;;4994460;28;20498;-64
2021/06/04 15:02:59;;;;;;;6.63;2.37;;;;;;;;;;4992577;28;20425;-65
2021/06/04 15:05:26;;;;;;;7.50;2.73;;;;;;;;;;4992272;28;20440;-65
2021/06/04 15:07:52;;;;;;;5.17;2.30;;;;;;;;;;4994615;28;20421;-65